sensor_id;sensor_type;location;lat;lon;timestamp;pressure;altitude;pressure_sealevel;temperature;humidity
83488;BME280;73424;49.994;8.184;2023-12-07T00:01:07;100372.22;;;-0.27;99.76
83488;BME280;73424;49.994;8.184;2023-12-07T00:03:32;100369.41;;;-0.46;99.75
83488;BME280;73424;49.994;8.184;2023-12-07T00:05:58;100366.19;;;-0.49;99.03
83488;BME280;73424;49.994;8.184;2023-12-07T00:08:23;100386.66;;;-0.32;99.59
83488;BME280;73424;49.994;8.184;2023-12-07T00:10:48;100384.88;;;-0.32;99.23
83488;BME280;73424;49.994;8.184;2023-12-07T00:13:14;100367.50;;;-0.44;98.92
83488;BME280;73424;49.994;8.184;2023-12-07T00:15:39;100389.19;;;-0.31;98.61
83488;BME280;73424;49.994;8.184;2023-12-07T00:18:05;100383.44;;;-0.25;98.73
83488;BME280;73424;49.994;8.184;2023-12-07T00:20:30;100361.75;;;-0.27;97.72
83488;BME280;73424;49.994;8.184;2023-12-07T00:22:55;100385.31;;;-0.05;97.84
83488;BME280;73424;49.994;8.184;2023-12-07T00:25:21;100376.75;;;-0.07;98.42
83488;BME280;73424;49.994;8.184;2023-12-07T00:27:47;100388.94;;;0.26;97.43
83488;BME280;73424;49.994;8.184;2023-12-07T00:30:13;100398.63;;;0.15;98.13
83488;BME280;73424;49.994;8.184;2023-12-07T00:32:38;100353.88;;;-0.27;97.60
83488;BME280;73424;49.994;8.184;2023-12-07T00:35:04;100401.25;;;0.04;98.15
83488;BME280;73424;49.994;8.184;2023-12-07T00:37:29;100389.16;;;-0.20;98.24
83488;BME280;73424;49.994;8.184;2023-12-07T00:39:55;100401.53;;;-0.33;98.60
83488;BME280;73424;49.994;8.184;2023-12-07T00:42:20;100394.78;;;-0.46;98.31
83488;BME280;73424;49.994;8.184;2023-12-07T00:44:45;100404.91;;;-0.31;98.72
83488;BME280;73424;49.994;8.184;2023-12-07T00:47:11;100401.53;;;-0.33;99.00
83488;BME280;73424;49.994;8.184;2023-12-07T00:49:39;100309.16;;;-0.90;98.52
83488;BME280;73424;49.994;8.184;2023-12-07T00:52:06;100403.69;;;-0.16;98.23
83488;BME280;73424;49.994;8.184;2023-12-07T00:54:31;100411.53;;;-0.27;98.50
83488;BME280;73424;49.994;8.184;2023-12-07T00:56:57;100389.53;;;-0.58;98.57
83488;BME280;73424;49.994;8.184;2023-12-07T00:59:23;100391.78;;;-0.64;98.58
83488;BME280;73424;49.994;8.184;2023-12-07T01:01:48;100417.63;;;-0.48;98.88
83488;BME280;73424;49.994;8.184;2023-12-07T01:04:13;100389.63;;;-0.70;98.73
83488;BME280;73424;49.994;8.184;2023-12-07T01:06:39;100398.22;;;-0.68;99.47
83488;BME280;73424;49.994;8.184;2023-12-07T01:09:04;100431.56;;;-0.59;98.75
83488;BME280;73424;49.994;8.184;2023-12-07T01:11:29;100429.41;;;-0.54;99.21
83488;BME280;73424;49.994;8.184;2023-12-07T01:13:54;100431.94;;;-0.52;99.52
83488;BME280;73424;49.994;8.184;2023-12-07T01:16:20;100437.53;;;-0.57;98.58
83488;BME280;73424;49.994;8.184;2023-12-07T01:18:45;100441.22;;;-0.48;99.14
83488;BME280;73424;49.994;8.184;2023-12-07T01:21:10;100422.28;;;-0.63;98.92
83488;BME280;73424;49.994;8.184;2023-12-07T01:23:37;100437.28;;;-0.65;99.29
83488;BME280;73424;49.994;8.184;2023-12-07T01:26:02;100417.59;;;-0.82;99.27
83488;BME280;73424;49.994;8.184;2023-12-07T01:28:28;100450.63;;;-0.57;99.67
83488;BME280;73424;49.994;8.184;2023-12-07T01:30:53;100448.38;;;-0.62;98.97
83488;BME280;73424;49.994;8.184;2023-12-07T01:33:19;100420.69;;;-0.88;98.72
83488;BME280;73424;49.994;8.184;2023-12-07T01:35:44;100401.03;;;-1.04;99.43
83488;BME280;73424;49.994;8.184;2023-12-07T01:38:09;100409.34;;;-1.11;98.71
83488;BME280;73424;49.994;8.184;2023-12-07T01:40:35;100389.81;;;-1.18;99.20
83488;BME280;73424;49.994;8.184;2023-12-07T01:43:00;100443.69;;;-0.80;99.57
83488;BME280;73424;49.994;8.184;2023-12-07T01:45:25;100433.44;;;-0.83;99.58
83488;BME280;73424;49.994;8.184;2023-12-07T01:47:51;100445.25;;;-0.67;99.25
83488;BME280;73424;49.994;8.184;2023-12-07T01:50:19;100397.50;;;-0.92;99.23
83488;BME280;73424;49.994;8.184;2023-12-07T01:52:50;100442.91;;;-0.59;98.47
83488;BME280;73424;49.994;8.184;2023-12-07T01:55:16;100419.19;;;-0.68;99.18
83488;BME280;73424;49.994;8.184;2023-12-07T01:57:44;100417.97;;;-0.64;98.58
83488;BME280;73424;49.994;8.184;2023-12-07T02:00:10;100430.72;;;-0.60;97.89
83488;BME280;73424;49.994;8.184;2023-12-07T02:02:36;100446.09;;;-0.66;97.50
83488;BME280;73424;49.994;8.184;2023-12-07T02:05:02;100423.75;;;-1.05;97.06
83488;BME280;73424;49.994;8.184;2023-12-07T02:07:29;100428.63;;;-1.12;97.26
83488;BME280;73424;49.994;8.184;2023-12-07T02:09:55;100460.03;;;-1.12;97.52
83488;BME280;73424;49.994;8.184;2023-12-07T02:12:23;100463.06;;;-1.29;97.80
83488;BME280;73424;49.994;8.184;2023-12-07T02:14:48;100422.25;;;-1.55;98.01
83488;BME280;73424;49.994;8.184;2023-12-07T02:17:26;100404.63;;;-1.64;98.55
83488;BME280;73424;49.994;8.184;2023-12-07T02:19:57;100456.69;;;-1.14;98.01
83488;BME280;73424;49.994;8.184;2023-12-07T02:22:32;100467.66;;;-0.97;98.50
83488;BME280;73424;49.994;8.184;2023-12-07T02:25:07;100472.00;;;-1.20;97.81
83488;BME280;73424;49.994;8.184;2023-12-07T02:27:40;100403.63;;;-1.50;99.03
83488;BME280;73424;49.994;8.184;2023-12-07T02:30:07;100466.44;;;-1.16;99.24
83488;BME280;73424;49.994;8.184;2023-12-07T02:32:34;100444.91;;;-1.43;98.76
83488;BME280;73424;49.994;8.184;2023-12-07T02:35:00;100434.84;;;-1.60;98.18
83488;BME280;73424;49.994;8.184;2023-12-07T02:37:28;100441.28;;;-1.77;98.59
83488;BME280;73424;49.994;8.184;2023-12-07T02:39:58;100451.66;;;-1.75;99.19
83488;BME280;73424;49.994;8.184;2023-12-07T02:42:25;100470.72;;;-1.62;98.94
83488;BME280;73424;49.994;8.184;2023-12-07T02:44:52;100453.81;;;-1.69;98.83
83488;BME280;73424;49.994;8.184;2023-12-07T02:47:18;100439.72;;;-1.79;98.83
83488;BME280;73424;49.994;8.184;2023-12-07T02:49:44;100428.16;;;-1.88;99.35
83488;BME280;73424;49.994;8.184;2023-12-07T02:52:09;100425.41;;;-1.86;99.06
83488;BME280;73424;49.994;8.184;2023-12-07T02:54:35;100459.09;;;-1.58;98.99
83488;BME280;73424;49.994;8.184;2023-12-07T02:57:00;100445.19;;;-1.82;98.53
83488;BME280;73424;49.994;8.184;2023-12-07T02:59:25;100444.69;;;-1.87;99.42
83488;BME280;73424;49.994;8.184;2023-12-07T03:01:51;100438.22;;;-1.94;98.80
83488;BME280;73424;49.994;8.184;2023-12-07T03:04:16;100444.72;;;-2.00;98.59
83488;BME280;73424;49.994;8.184;2023-12-07T03:06:41;100357.28;;;-2.56;98.50
83488;BME280;73424;49.994;8.184;2023-12-07T03:09:06;100480.00;;;-1.82;99.54
83488;BME280;73424;49.994;8.184;2023-12-07T03:11:32;100442.09;;;-2.00;98.40
83488;BME280;73424;49.994;8.184;2023-12-07T03:13:57;100463.53;;;-1.95;98.69
83488;BME280;73424;49.994;8.184;2023-12-07T03:16:23;100453.22;;;-2.09;97.80
83488;BME280;73424;49.994;8.184;2023-12-07T03:18:48;100362.91;;;-2.62;98.42
83488;BME280;73424;49.994;8.184;2023-12-07T03:21:13;100469.19;;;-2.01;98.47
83488;BME280;73424;49.994;8.184;2023-12-07T03:23:39;100447.03;;;-2.08;98.68
83488;BME280;73424;49.994;8.184;2023-12-07T03:26:04;100465.41;;;-1.97;98.75
83488;BME280;73424;49.994;8.184;2023-12-07T03:28:29;100421.06;;;-2.35;98.33
83488;BME280;73424;49.994;8.184;2023-12-07T03:30:54;100442.72;;;-2.33;99.35
83488;BME280;73424;49.994;8.184;2023-12-07T03:33:20;100425.34;;;-2.34;98.78
83488;BME280;73424;49.994;8.184;2023-12-07T03:35:45;100481.13;;;-2.09;98.37
83488;BME280;73424;49.994;8.184;2023-12-07T03:38:10;100442.19;;;-2.38;99.28
83488;BME280;73424;49.994;8.184;2023-12-07T03:40:35;100445.75;;;-2.39;99.33
83488;BME280;73424;49.994;8.184;2023-12-07T03:43:01;100506.00;;;-2.16;99.29
83488;BME280;73424;49.994;8.184;2023-12-07T03:45:28;100421.41;;;-2.52;99.23
83488;BME280;73424;49.994;8.184;2023-12-07T03:47:53;100473.09;;;-2.19;99.61
83488;BME280;73424;49.994;8.184;2023-12-07T03:50:18;100449.44;;;-2.05;100.00
83488;BME280;73424;49.994;8.184;2023-12-07T03:52:44;100473.22;;;-1.84;99.83
83488;BME280;73424;49.994;8.184;2023-12-07T03:55:09;100439.59;;;-2.01;100.00
83488;BME280;73424;49.994;8.184;2023-12-07T03:57:36;100317.94;;;-2.78;99.87
83488;BME280;73424;49.994;8.184;2023-12-07T04:00:01;100440.56;;;-2.02;99.56
83488;BME280;73424;49.994;8.184;2023-12-07T04:02:29;100490.94;;;-1.64;99.74
83488;BME280;73424;49.994;8.184;2023-12-07T04:04:58;100498.34;;;-1.58;99.91
83488;BME280;73424;49.994;8.184;2023-12-07T04:07:26;100500.03;;;-1.57;99.68
83488;BME280;73424;49.994;8.184;2023-12-07T04:09:52;100482.31;;;-1.53;99.87
83488;BME280;73424;49.994;8.184;2023-12-07T04:12:17;100483.34;;;-1.56;99.39
83488;BME280;73424;49.994;8.184;2023-12-07T04:14:42;100433.13;;;-1.72;99.79
83488;BME280;73424;49.994;8.184;2023-12-07T04:17:08;100489.28;;;-1.41;99.19
83488;BME280;73424;49.994;8.184;2023-12-07T04:19:33;100472.63;;;-1.64;98.82
83488;BME280;73424;49.994;8.184;2023-12-07T04:21:58;100489.34;;;-1.54;99.23
83488;BME280;73424;49.994;8.184;2023-12-07T04:24:23;100472.63;;;-1.64;98.37
83488;BME280;73424;49.994;8.184;2023-12-07T04:26:49;100484.53;;;-1.60;99.05
83488;BME280;73424;49.994;8.184;2023-12-07T04:29:14;100483.94;;;-1.63;98.54
83488;BME280;73424;49.994;8.184;2023-12-07T04:31:40;100462.78;;;-1.84;98.72
83488;BME280;73424;49.994;8.184;2023-12-07T04:34:05;100441.31;;;-1.89;99.06
83488;BME280;73424;49.994;8.184;2023-12-07T04:36:31;100455.25;;;-1.89;98.32
83488;BME280;73424;49.994;8.184;2023-12-07T04:38:56;100483.66;;;-1.72;98.76
83488;BME280;73424;49.994;8.184;2023-12-07T04:41:22;100465.59;;;-1.87;97.93
83488;BME280;73424;49.994;8.184;2023-12-07T04:43:47;100502.94;;;-1.61;98.29
83488;BME280;73424;49.994;8.184;2023-12-07T04:46:12;100492.31;;;-1.71;97.78
83488;BME280;73424;49.994;8.184;2023-12-07T04:48:37;100413.81;;;-2.18;97.14
83488;BME280;73424;49.994;8.184;2023-12-07T04:51:03;100504.88;;;-1.76;97.31
83488;BME280;73424;49.994;8.184;2023-12-07T04:53:28;100481.94;;;-1.96;97.77
83488;BME280;73424;49.994;8.184;2023-12-07T04:55:54;100457.59;;;-2.09;97.72
83488;BME280;73424;49.994;8.184;2023-12-07T04:58:19;100494.19;;;-2.09;97.94
83488;BME280;73424;49.994;8.184;2023-12-07T05:00:44;100378.81;;;-2.90;97.47
83488;BME280;73424;49.994;8.184;2023-12-07T05:03:10;100513.75;;;-2.15;97.46
83488;BME280;73424;49.994;8.184;2023-12-07T05:05:35;100484.72;;;-2.36;97.94
83488;BME280;73424;49.994;8.184;2023-12-07T05:08:01;100487.75;;;-2.42;97.54
83488;BME280;73424;49.994;8.184;2023-12-07T05:10:26;100515.53;;;-2.15;98.63
83488;BME280;73424;49.994;8.184;2023-12-07T05:12:51;100473.53;;;-2.50;98.09
83488;BME280;73424;49.994;8.184;2023-12-07T05:15:17;100517.50;;;-2.32;98.47
83488;BME280;73424;49.994;8.184;2023-12-07T05:17:42;100486.69;;;-2.52;98.26
83488;BME280;73424;49.994;8.184;2023-12-07T05:20:08;100506.63;;;-2.38;98.38
83488;BME280;73424;49.994;8.184;2023-12-07T05:22:33;100493.41;;;-2.48;98.04
83488;BME280;73424;49.994;8.184;2023-12-07T05:24:58;100478.75;;;-2.63;97.70
83488;BME280;73424;49.994;8.184;2023-12-07T05:27:24;100483.16;;;-2.63;97.73
83488;BME280;73424;49.994;8.184;2023-12-07T05:29:49;100513.31;;;-2.47;97.66
83488;BME280;73424;49.994;8.184;2023-12-07T05:32:14;100523.16;;;-2.50;97.04
83488;BME280;73424;49.994;8.184;2023-12-07T05:34:40;100534.31;;;-2.61;97.84
83488;BME280;73424;49.994;8.184;2023-12-07T05:37:06;100475.16;;;-2.87;97.65
83488;BME280;73424;49.994;8.184;2023-12-07T05:39:31;100466.94;;;-2.81;98.26
83488;BME280;73424;49.994;8.184;2023-12-07T05:41:57;100522.00;;;-2.59;97.73
83488;BME280;73424;49.994;8.184;2023-12-07T05:44:22;100493.16;;;-2.70;98.02
83488;BME280;73424;49.994;8.184;2023-12-07T05:46:49;100502.66;;;-2.69;97.38
83488;BME280;73424;49.994;8.184;2023-12-07T05:49:14;100524.81;;;-2.49;97.85
83488;BME280;73424;49.994;8.184;2023-12-07T05:51:39;100514.28;;;-2.48;97.51
83488;BME280;73424;49.994;8.184;2023-12-07T05:54:05;100493.69;;;-2.65;97.55
83488;BME280;73424;49.994;8.184;2023-12-07T05:56:31;100517.09;;;-2.63;97.45
83488;BME280;73424;49.994;8.184;2023-12-07T05:58:56;100510.28;;;-2.66;98.64
83488;BME280;73424;49.994;8.184;2023-12-07T06:01:22;100526.09;;;-2.55;99.10
83488;BME280;73424;49.994;8.184;2023-12-07T06:03:47;100515.84;;;-2.58;98.67
83488;BME280;73424;49.994;8.184;2023-12-07T06:06:12;100452.09;;;-3.06;98.40
83488;BME280;73424;49.994;8.184;2023-12-07T06:08:38;100485.41;;;-2.84;98.50
83488;BME280;73424;49.994;8.184;2023-12-07T06:11:03;100464.63;;;-2.98;99.19
83488;BME280;73424;49.994;8.184;2023-12-07T06:13:28;100525.97;;;-2.53;99.13
83488;BME280;73424;49.994;8.184;2023-12-07T06:15:54;100520.94;;;-2.69;97.99
83488;BME280;73424;49.994;8.184;2023-12-07T06:18:19;100498.38;;;-2.83;98.81
83488;BME280;73424;49.994;8.184;2023-12-07T06:20:44;100525.16;;;-2.54;99.05
83488;BME280;73424;49.994;8.184;2023-12-07T06:23:10;100538.31;;;-2.43;99.35
83488;BME280;73424;49.994;8.184;2023-12-07T06:25:38;100511.69;;;-2.48;99.88
83488;BME280;73424;49.994;8.184;2023-12-07T06:28:03;100504.25;;;-2.54;99.54
83488;BME280;73424;49.994;8.184;2023-12-07T06:30:29;100502.78;;;-2.58;99.57
83488;BME280;73424;49.994;8.184;2023-12-07T06:32:54;100533.19;;;-2.32;99.44
83488;BME280;73424;49.994;8.184;2023-12-07T06:35:20;100536.34;;;-2.27;99.71
83488;BME280;73424;49.994;8.184;2023-12-07T06:37:45;100502.78;;;-2.33;100.00
83488;BME280;73424;49.994;8.184;2023-12-07T06:40:11;100518.66;;;-2.23;100.00
83488;BME280;73424;49.994;8.184;2023-12-07T06:42:36;100533.25;;;-2.08;100.00
83488;BME280;73424;49.994;8.184;2023-12-07T06:45:02;100556.34;;;-1.89;100.00
83488;BME280;73424;49.994;8.184;2023-12-07T06:47:28;100560.44;;;-1.85;100.00
83488;BME280;73424;49.994;8.184;2023-12-07T06:49:53;100545.69;;;-1.86;100.00
83488;BME280;73424;49.994;8.184;2023-12-07T06:52:18;100560.50;;;-1.74;100.00
83488;BME280;73424;49.994;8.184;2023-12-07T06:54:44;100526.22;;;-1.82;100.00
83488;BME280;73424;49.994;8.184;2023-12-07T06:57:09;100563.09;;;-1.61;99.63
83488;BME280;73424;49.994;8.184;2023-12-07T06:59:34;100544.00;;;-1.75;99.84
83488;BME280;73424;49.994;8.184;2023-12-07T07:02:00;100575.09;;;-1.46;100.00
83488;BME280;73424;49.994;8.184;2023-12-07T07:04:25;100556.41;;;-1.53;99.42
83488;BME280;73424;49.994;8.184;2023-12-07T07:06:50;100550.00;;;-1.49;99.31
83488;BME280;73424;49.994;8.184;2023-12-07T07:09:24;100588.59;;;-1.40;97.09
83488;BME280;73424;49.994;8.184;2023-12-07T07:11:50;100579.69;;;-1.37;97.22
83488;BME280;73424;49.994;8.184;2023-12-07T07:14:15;100539.69;;;-1.63;96.96
83488;BME280;73424;49.994;8.184;2023-12-07T07:16:41;100584.53;;;-1.44;96.96
83488;BME280;73424;49.994;8.184;2023-12-07T07:19:06;100573.03;;;-1.54;96.50
83488;BME280;73424;49.994;8.184;2023-12-07T07:21:31;100579.94;;;-1.53;96.16
83488;BME280;73424;49.994;8.184;2023-12-07T07:23:57;100587.69;;;-1.51;96.24
83488;BME280;73424;49.994;8.184;2023-12-07T07:26:22;100582.22;;;-1.48;96.87
83488;BME280;73424;49.994;8.184;2023-12-07T07:28:50;100577.84;;;-1.48;96.62
83488;BME280;73424;49.994;8.184;2023-12-07T07:31:16;100589.34;;;-1.50;96.17
83488;BME280;73424;49.994;8.184;2023-12-07T07:33:42;100585.59;;;-1.59;97.02
83488;BME280;73424;49.994;8.184;2023-12-07T07:36:08;100590.19;;;-1.50;97.61
83488;BME280;73424;49.994;8.184;2023-12-07T07:38:33;100593.41;;;-1.46;97.32
83488;BME280;73424;49.994;8.184;2023-12-07T07:40:59;100561.25;;;-1.36;97.79
83488;BME280;73424;49.994;8.184;2023-12-07T07:43:24;100524.06;;;-1.52;99.31
83488;BME280;73424;49.994;8.184;2023-12-07T07:45:49;100548.78;;;-1.08;99.42
83488;BME280;73424;49.994;8.184;2023-12-07T07:48:15;100515.28;;;-1.27;99.24
83488;BME280;73424;49.994;8.184;2023-12-07T07:50:40;100498.91;;;-1.18;98.73
83488;BME280;73424;49.994;8.184;2023-12-07T07:53:05;100524.13;;;-1.17;99.08
83488;BME280;73424;49.994;8.184;2023-12-07T07:55:31;100526.63;;;-1.16;99.66
83488;BME280;73424;49.994;8.184;2023-12-07T07:57:56;100519.22;;;-1.22;100.00
83488;BME280;73424;49.994;8.184;2023-12-07T08:00:22;100538.56;;;-1.12;100.00
83488;BME280;73424;49.994;8.184;2023-12-07T08:02:49;100468.84;;;-1.60;100.00
83488;BME280;73424;49.994;8.184;2023-12-07T08:05:15;100546.34;;;-1.23;100.00
83488;BME280;73424;49.994;8.184;2023-12-07T08:07:40;100520.84;;;-1.32;100.00
83488;BME280;73424;49.994;8.184;2023-12-07T08:10:06;100545.13;;;-1.06;99.74
83488;BME280;73424;49.994;8.184;2023-12-07T08:12:33;100559.38;;;-0.86;99.42
83488;BME280;73424;49.994;8.184;2023-12-07T08:14:58;100538.31;;;-1.08;99.51
83488;BME280;73424;49.994;8.184;2023-12-07T08:17:23;100565.91;;;-0.92;99.96
83488;BME280;73424;49.994;8.184;2023-12-07T08:19:51;100569.44;;;-0.69;99.84
83488;BME280;73424;49.994;8.184;2023-12-07T08:22:16;100507.94;;;-0.87;99.86
83488;BME280;73424;49.994;8.184;2023-12-07T08:24:41;100534.44;;;-0.57;98.65
83488;BME280;73424;49.994;8.184;2023-12-07T08:27:07;100539.31;;;-0.64;99.17
83488;BME280;73424;49.994;8.184;2023-12-07T08:29:32;100517.84;;;-0.80;98.51
83488;BME280;73424;49.994;8.184;2023-12-07T08:31:58;100559.72;;;-0.45;99.04
83488;BME280;73424;49.994;8.184;2023-12-07T08:34:23;100554.00;;;-0.50;99.12
83488;BME280;73424;49.994;8.184;2023-12-07T08:36:50;100555.56;;;-0.36;99.48
83488;BME280;73424;49.994;8.184;2023-12-07T08:39:15;100524.81;;;-0.57;98.70
83488;BME280;73424;49.994;8.184;2023-12-07T08:41:40;100557.03;;;-0.21;99.83
83488;BME280;73424;49.994;8.184;2023-12-07T08:44:06;100550.38;;;-0.25;98.40
83488;BME280;73424;49.994;8.184;2023-12-07T08:46:31;100512.78;;;-0.48;98.49
83488;BME280;73424;49.994;8.184;2023-12-07T08:48:56;100536.41;;;-0.37;98.72
83488;BME280;73424;49.994;8.184;2023-12-07T08:51:22;100546.06;;;-0.15;98.52
83488;BME280;73424;49.994;8.184;2023-12-07T08:53:47;100544.06;;;-0.23;98.42
83488;BME280;73424;49.994;8.184;2023-12-07T08:56:13;100512.59;;;-0.23;97.51
83488;BME280;73424;49.994;8.184;2023-12-07T08:58:39;100515.94;;;-0.43;97.94
83488;BME280;73424;49.994;8.184;2023-12-07T09:01:04;100543.69;;;-0.18;98.74
83488;BME280;73424;49.994;8.184;2023-12-07T09:03:30;100536.94;;;-0.10;98.02
83488;BME280;73424;49.994;8.184;2023-12-07T09:05:57;100531.19;;;-0.15;97.93
83488;BME280;73424;49.994;8.184;2023-12-07T09:08:22;100545.50;;;0.04;97.49
83488;BME280;73424;49.994;8.184;2023-12-07T09:10:48;100546.19;;;-0.06;98.30
83488;BME280;73424;49.994;8.184;2023-12-07T09:13:15;100551.81;;;-0.10;97.97
83488;BME280;73424;49.994;8.184;2023-12-07T09:15:40;100534.59;;;-0.36;98.84
83488;BME280;73424;49.994;8.184;2023-12-07T09:18:06;100560.53;;;-0.10;98.91
83488;BME280;73424;49.994;8.184;2023-12-07T09:20:31;100509.72;;;-0.09;97.81
83488;BME280;73424;49.994;8.184;2023-12-07T09:22:56;100523.22;;;0.09;97.03
83488;BME280;73424;49.994;8.184;2023-12-07T09:25:22;100522.88;;;0.03;97.04
83488;BME280;73424;49.994;8.184;2023-12-07T09:27:47;100529.41;;;0.08;97.60
83488;BME280;73424;49.994;8.184;2023-12-07T09:30:13;100515.78;;;0.25;96.18
83488;BME280;73424;49.994;8.184;2023-12-07T09:32:42;100538.94;;;0.31;96.70
83488;BME280;73424;49.994;8.184;2023-12-07T09:35:08;100548.34;;;0.34;96.13
83488;BME280;73424;49.994;8.184;2023-12-07T09:37:44;100562.41;;;0.22;96.99
83488;BME280;73424;49.994;8.184;2023-12-07T09:40:14;100511.91;;;0.09;96.79
83488;BME280;73424;49.994;8.184;2023-12-07T09:42:40;100549.31;;;0.22;97.77
83488;BME280;73424;49.994;8.184;2023-12-07T09:45:07;100554.31;;;0.36;97.28
83488;BME280;73424;49.994;8.184;2023-12-07T09:47:34;100544.53;;;0.16;96.93
83488;BME280;73424;49.994;8.184;2023-12-07T09:50:02;100457.09;;;-0.28;96.36
83488;BME280;73424;49.994;8.184;2023-12-07T09:52:28;100550.38;;;0.41;95.67
83488;BME280;73424;49.994;8.184;2023-12-07T09:54:54;100545.00;;;0.54;96.33
83488;BME280;73424;49.994;8.184;2023-12-07T09:57:20;100517.94;;;0.31;96.08
83488;BME280;73424;49.994;8.184;2023-12-07T09:59:46;100541.41;;;0.55;96.08
83488;BME280;73424;49.994;8.184;2023-12-07T10:02:13;100512.81;;;0.30;95.50
83488;BME280;73424;49.994;8.184;2023-12-07T10:04:38;100531.66;;;0.35;97.07
83488;BME280;73424;49.994;8.184;2023-12-07T10:07:04;100522.56;;;0.50;96.36
83488;BME280;73424;49.994;8.184;2023-12-07T10:09:34;100517.56;;;0.47;96.62
83488;BME280;73424;49.994;8.184;2023-12-07T10:12:05;100507.53;;;0.52;96.91
83488;BME280;73424;49.994;8.184;2023-12-07T10:14:31;100521.81;;;0.59;95.78
83488;BME280;73424;49.994;8.184;2023-12-07T10:16:57;100531.88;;;0.54;97.50
83488;BME280;73424;49.994;8.184;2023-12-07T10:19:23;100507.81;;;0.16;97.93
83488;BME280;73424;49.994;8.184;2023-12-07T10:21:49;100524.94;;;0.53;96.00
83488;BME280;73424;49.994;8.184;2023-12-07T10:24:18;100513.50;;;0.54;95.46
83488;BME280;73424;49.994;8.184;2023-12-07T10:26:45;100499.94;;;0.16;96.14
83488;BME280;73424;49.994;8.184;2023-12-07T10:29:11;100493.16;;;0.13;98.06
83488;BME280;73424;49.994;8.184;2023-12-07T10:31:37;100521.03;;;0.25;98.12
83488;BME280;73424;49.994;8.184;2023-12-07T10:34:03;100521.41;;;0.21;97.76
83488;BME280;73424;49.994;8.184;2023-12-07T10:36:29;100510.19;;;0.30;97.74
83488;BME280;73424;49.994;8.184;2023-12-07T10:38:55;100494.47;;;0.30;97.34
83488;BME280;73424;49.994;8.184;2023-12-07T10:41:24;100496.59;;;0.25;97.50
83488;BME280;73424;49.994;8.184;2023-12-07T10:44:01;100519.19;;;0.59;97.28
83488;BME280;73424;49.994;8.184;2023-12-07T10:46:27;100519.44;;;0.67;97.75
83488;BME280;73424;49.994;8.184;2023-12-07T10:49:00;100503.59;;;0.58;96.68
83488;BME280;73424;49.994;8.184;2023-12-07T10:51:45;100493.03;;;0.69;96.74
83488;BME280;73424;49.994;8.184;2023-12-07T10:54:16;100498.59;;;0.86;96.24
83488;BME280;73424;49.994;8.184;2023-12-07T10:56:47;100469.38;;;0.48;96.26
83488;BME280;73424;49.994;8.184;2023-12-07T10:59:16;100478.88;;;0.49;96.82
83488;BME280;73424;49.994;8.184;2023-12-07T11:01:43;100473.25;;;0.65;98.02
83488;BME280;73424;49.994;8.184;2023-12-07T11:04:13;100462.63;;;0.66;96.16
83488;BME280;73424;49.994;8.184;2023-12-07T11:06:43;100485.94;;;0.91;95.97
83488;BME280;73424;49.994;8.184;2023-12-07T11:09:13;100504.34;;;0.80;97.23
83488;BME280;73424;49.994;8.184;2023-12-07T11:11:41;100474.66;;;1.00;96.31
83488;BME280;73424;49.994;8.184;2023-12-07T11:14:10;100457.47;;;0.96;95.89
83488;BME280;73424;49.994;8.184;2023-12-07T11:16:43;100464.41;;;0.97;94.40
83488;BME280;73424;49.994;8.184;2023-12-07T11:22:03;100474.22;;;1.16;94.68
83488;BME280;73424;49.994;8.184;2023-12-07T11:24:29;100402.84;;;0.70;94.50
83488;BME280;73424;49.994;8.184;2023-12-07T11:26:55;100448.47;;;1.10;95.12
83488;BME280;73424;49.994;8.184;2023-12-07T11:29:23;100421.22;;;0.90;94.94
83488;BME280;73424;49.994;8.184;2023-12-07T11:31:49;100417.94;;;0.98;94.92
83488;BME280;73424;49.994;8.184;2023-12-07T11:34:34;100400.22;;;0.90;94.36
83488;BME280;73424;49.994;8.184;2023-12-07T11:37:01;100426.16;;;1.04;94.60
83488;BME280;73424;49.994;8.184;2023-12-07T11:39:28;100421.16;;;0.81;95.14
83488;BME280;73424;49.994;8.184;2023-12-07T11:41:55;100422.50;;;0.96;95.92
83488;BME280;73424;49.994;8.184;2023-12-07T11:44:24;100297.22;;;0.25;94.83
83488;BME280;73424;49.994;8.184;2023-12-07T11:46:57;100414.56;;;1.07;95.60
83488;BME280;73424;49.994;8.184;2023-12-07T11:49:23;100364.41;;;0.89;94.92
83488;BME280;73424;49.994;8.184;2023-12-07T11:51:48;100353.72;;;0.81;94.08
83488;BME280;73424;49.994;8.184;2023-12-07T11:54:15;100395.94;;;1.20;95.29
83488;BME280;73424;49.994;8.184;2023-12-07T11:56:42;100354.72;;;0.90;94.40
83488;BME280;73424;49.994;8.184;2023-12-07T11:59:07;100347.00;;;0.88;94.62
83488;BME280;73424;49.994;8.184;2023-12-07T12:01:33;100334.19;;;0.74;94.45
83488;BME280;73424;49.994;8.184;2023-12-07T12:03:58;100296.34;;;0.56;95.91
83488;BME280;73424;49.994;8.184;2023-12-07T12:06:24;100384.19;;;1.14;95.27
83488;BME280;73424;49.994;8.184;2023-12-07T12:08:51;100383.47;;;1.12;95.57
83488;BME280;73424;49.994;8.184;2023-12-07T12:11:17;100387.63;;;1.15;94.92
83488;BME280;73424;49.994;8.184;2023-12-07T12:13:45;100367.66;;;1.02;94.68
83488;BME280;73424;49.994;8.184;2023-12-07T12:16:12;100340.44;;;0.83;94.77
83488;BME280;73424;49.994;8.184;2023-12-07T12:18:38;100356.97;;;0.94;94.94
83488;BME280;73424;49.994;8.184;2023-12-07T12:21:04;100361.41;;;0.94;94.84
83488;BME280;73424;49.994;8.184;2023-12-07T12:23:29;100362.16;;;1.05;95.21
83488;BME280;73424;49.994;8.184;2023-12-07T12:25:54;100363.81;;;1.06;95.67
83488;BME280;73424;49.994;8.184;2023-12-07T12:28:20;100340.28;;;1.05;95.33
83488;BME280;73424;49.994;8.184;2023-12-07T12:30:48;100365.16;;;1.22;95.12
83488;BME280;73424;49.994;8.184;2023-12-07T12:33:13;100373.28;;;1.19;95.60
83488;BME280;73424;49.994;8.184;2023-12-07T12:35:39;100339.88;;;1.00;96.23
83488;BME280;73424;49.994;8.184;2023-12-07T12:38:09;100351.69;;;1.15;95.59
83488;BME280;73424;49.994;8.184;2023-12-07T12:40:36;100322.00;;;0.94;95.63
83488;BME280;73424;49.994;8.184;2023-12-07T12:43:01;100347.97;;;1.18;95.72
83488;BME280;73424;49.994;8.184;2023-12-07T12:45:27;100356.13;;;1.15;95.64
83488;BME280;73424;49.994;8.184;2023-12-07T12:47:53;100346.50;;;1.25;95.10
83488;BME280;73424;49.994;8.184;2023-12-07T12:50:38;100356.94;;;1.15;95.84